sensor_id;sensor_type;location;lat;lon;timestamp;P1;durP1;ratioP1;P2;durP2;ratioP2
6842;SDS011;3460;52.028;8.916;2023-02-28T00:00:09;2.90;;;2.33;;
6842;SDS011;3460;52.028;8.916;2023-02-28T00:02:37;3.83;;;2.23;;
6842;SDS011;3460;52.028;8.916;2023-02-28T00:05:05;6.40;;;2.70;;
6842;SDS011;3460;52.028;8.916;2023-02-28T00:07:33;3.63;;;2.40;;
6842;SDS011;3460;52.028;8.916;2023-02-28T00:10:01;3.70;;;2.57;;
6842;SDS011;3460;52.028;8.916;2023-02-28T00:12:30;3.47;;;2.70;;
6842;SDS011;3460;52.028;8.916;2023-02-28T00:14:57;4.03;;;2.23;;
6842;SDS011;3460;52.028;8.916;2023-02-28T00:17:24;4.23;;;2.50;;
6842;SDS011;3460;52.028;8.916;2023-02-28T00:19:51;6.20;;;3.20;;
6842;SDS011;3460;52.028;8.916;2023-02-28T00:22:19;3.60;;;2.67;;
6842;SDS011;3460;52.028;8.916;2023-02-28T00:24:46;3.37;;;2.23;;
6842;SDS011;3460;52.028;8.916;2023-02-28T00:27:13;4.03;;;2.70;;
6842;SDS011;3460;52.028;8.916;2023-02-28T00:29:42;2.83;;;2.20;;
6842;SDS011;3460;52.028;8.916;2023-02-28T00:32:09;7.17;;;3.23;;
6842;SDS011;3460;52.028;8.916;2023-02-28T00:34:35;7.70;;;3.00;;
6842;SDS011;3460;52.028;8.916;2023-02-28T00:37:03;4.60;;;3.30;;
6842;SDS011;3460;52.028;8.916;2023-02-28T00:39:32;7.20;;;2.90;;
6842;SDS011;3460;52.028;8.916;2023-02-28T00:41:59;3.70;;;2.80;;
6842;SDS011;3460;52.028;8.916;2023-02-28T00:44:27;4.80;;;2.80;;
6842;SDS011;3460;52.028;8.916;2023-02-28T00:46:55;4.50;;;2.93;;
6842;SDS011;3460;52.028;8.916;2023-02-28T00:49:22;4.23;;;3.00;;
6842;SDS011;3460;52.028;8.916;2023-02-28T00:51:49;5.07;;;2.63;;
6842;SDS011;3460;52.028;8.916;2023-02-28T00:54:17;5.67;;;2.90;;
6842;SDS011;3460;52.028;8.916;2023-02-28T00:56:43;5.50;;;3.03;;
6842;SDS011;3460;52.028;8.916;2023-02-28T00:59:11;5.40;;;3.10;;
6842;SDS011;3460;52.028;8.916;2023-02-28T01:01:39;4.23;;;3.00;;
6842;SDS011;3460;52.028;8.916;2023-02-28T01:04:07;4.67;;;3.00;;
6842;SDS011;3460;52.028;8.916;2023-02-28T01:06:34;5.13;;;3.10;;
6842;SDS011;3460;52.028;8.916;2023-02-28T01:09:02;4.13;;;2.53;;
6842;SDS011;3460;52.028;8.916;2023-02-28T01:11:30;3.70;;;2.60;;
6842;SDS011;3460;52.028;8.916;2023-02-28T01:13:57;4.17;;;3.00;;
6842;SDS011;3460;52.028;8.916;2023-02-28T01:16:24;4.97;;;2.70;;
6842;SDS011;3460;52.028;8.916;2023-02-28T01:18:51;6.97;;;3.30;;
6842;SDS011;3460;52.028;8.916;2023-02-28T01:21:20;4.30;;;2.70;;
6842;SDS011;3460;52.028;8.916;2023-02-28T01:23:48;5.03;;;3.00;;
6842;SDS011;3460;52.028;8.916;2023-02-28T01:26:16;3.93;;;2.67;;
6842;SDS011;3460;52.028;8.916;2023-02-28T01:28:44;5.13;;;2.67;;
6842;SDS011;3460;52.028;8.916;2023-02-28T01:31:11;4.87;;;3.00;;
6842;SDS011;3460;52.028;8.916;2023-02-28T01:33:38;3.97;;;2.60;;
6842;SDS011;3460;52.028;8.916;2023-02-28T01:36:06;4.87;;;3.03;;
6842;SDS011;3460;52.028;8.916;2023-02-28T01:38:37;3.30;;;2.63;;
6842;SDS011;3460;52.028;8.916;2023-02-28T01:41:04;6.33;;;2.73;;
6842;SDS011;3460;52.028;8.916;2023-02-28T01:43:32;5.23;;;3.00;;
6842;SDS011;3460;52.028;8.916;2023-02-28T01:46:18;4.67;;;2.70;;
6842;SDS011;3460;52.028;8.916;2023-02-28T01:48:45;5.00;;;3.33;;
6842;SDS011;3460;52.028;8.916;2023-02-28T01:51:15;5.03;;;3.10;;
6842;SDS011;3460;52.028;8.916;2023-02-28T01:53:47;6.50;;;3.77;;
6842;SDS011;3460;52.028;8.916;2023-02-28T01:56:19;6.37;;;3.00;;
6842;SDS011;3460;52.028;8.916;2023-02-28T01:58:50;4.87;;;3.60;;
6842;SDS011;3460;52.028;8.916;2023-02-28T02:01:18;6.43;;;3.60;;
6842;SDS011;3460;52.028;8.916;2023-02-28T02:03:47;4.87;;;3.33;;
6842;SDS011;3460;52.028;8.916;2023-02-28T02:06:20;4.37;;;3.17;;
6842;SDS011;3460;52.028;8.916;2023-02-28T02:08:49;4.60;;;3.40;;
6842;SDS011;3460;52.028;8.916;2023-02-28T02:11:17;5.67;;;3.37;;
6842;SDS011;3460;52.028;8.916;2023-02-28T02:13:51;5.90;;;3.10;;
6842;SDS011;3460;52.028;8.916;2023-02-28T02:16:52;4.53;;;3.10;;
6842;SDS011;3460;52.028;8.916;2023-02-28T02:19:52;4.70;;;3.07;;
6842;SDS011;3460;52.028;8.916;2023-02-28T02:22:50;6.93;;;2.97;;
6842;SDS011;3460;52.028;8.916;2023-02-28T02:25:54;5.63;;;3.03;;
6842;SDS011;3460;52.028;8.916;2023-02-28T02:28:41;4.73;;;3.20;;
6842;SDS011;3460;52.028;8.916;2023-02-28T02:31:29;5.67;;;3.43;;
6842;SDS011;3460;52.028;8.916;2023-02-28T02:34:35;5.07;;;3.30;;
6842;SDS011;3460;52.028;8.916;2023-02-28T02:37:08;4.63;;;2.43;;
6842;SDS011;3460;52.028;8.916;2023-02-28T02:39:44;4.93;;;3.20;;
6842;SDS011;3460;52.028;8.916;2023-02-28T02:42:20;3.33;;;2.80;;
6842;SDS011;3460;52.028;8.916;2023-02-28T02:44:52;4.90;;;3.27;;
6842;SDS011;3460;52.028;8.916;2023-02-28T02:47:25;3.57;;;2.70;;
6842;SDS011;3460;52.028;8.916;2023-02-28T02:49:57;5.07;;;3.10;;
6842;SDS011;3460;52.028;8.916;2023-02-28T02:52:28;4.73;;;2.77;;
6842;SDS011;3460;52.028;8.916;2023-02-28T02:55:00;5.47;;;2.80;;
6842;SDS011;3460;52.028;8.916;2023-02-28T02:57:31;4.17;;;2.63;;
6842;SDS011;3460;52.028;8.916;2023-02-28T03:00:02;4.67;;;2.93;;
6842;SDS011;3460;52.028;8.916;2023-02-28T03:02:33;5.43;;;3.00;;
6842;SDS011;3460;52.028;8.916;2023-02-28T03:05:04;4.40;;;2.80;;
6842;SDS011;3460;52.028;8.916;2023-02-28T03:07:35;4.93;;;3.20;;
6842;SDS011;3460;52.028;8.916;2023-02-28T03:10:02;4.80;;;2.83;;
6842;SDS011;3460;52.028;8.916;2023-02-28T03:12:31;4.47;;;2.67;;
6842;SDS011;3460;52.028;8.916;2023-02-28T03:15:08;3.90;;;2.73;;
6842;SDS011;3460;52.028;8.916;2023-02-28T03:17:51;4.13;;;2.47;;
6842;SDS011;3460;52.028;8.916;2023-02-28T03:20:30;4.03;;;2.87;;
6842;SDS011;3460;52.028;8.916;2023-02-28T03:23:13;4.10;;;2.90;;
6842;SDS011;3460;52.028;8.916;2023-02-28T03:25:45;6.20;;;2.80;;
6842;SDS011;3460;52.028;8.916;2023-02-28T03:28:24;4.27;;;2.57;;
6842;SDS011;3460;52.028;8.916;2023-02-28T03:30:59;7.40;;;3.50;;
6842;SDS011;3460;52.028;8.916;2023-02-28T03:33:30;5.03;;;3.00;;
6842;SDS011;3460;52.028;8.916;2023-02-28T03:36:04;5.33;;;2.97;;
6842;SDS011;3460;52.028;8.916;2023-02-28T03:38:34;7.13;;;3.30;;
6842;SDS011;3460;52.028;8.916;2023-02-28T03:41:05;6.73;;;3.40;;
6842;SDS011;3460;52.028;8.916;2023-02-28T03:43:36;7.80;;;4.07;;
6842;SDS011;3460;52.028;8.916;2023-02-28T03:46:08;7.67;;;3.90;;
6842;SDS011;3460;52.028;8.916;2023-02-28T03:48:40;7.30;;;3.87;;
6842;SDS011;3460;52.028;8.916;2023-02-28T03:51:12;8.53;;;3.70;;
6842;SDS011;3460;52.028;8.916;2023-02-28T03:53:44;7.87;;;4.07;;
6842;SDS011;3460;52.028;8.916;2023-02-28T03:56:13;7.83;;;3.63;;
6842;SDS011;3460;52.028;8.916;2023-02-28T03:58:45;6.63;;;4.07;;
6842;SDS011;3460;52.028;8.916;2023-02-28T04:01:18;6.60;;;3.87;;
6842;SDS011;3460;52.028;8.916;2023-02-28T04:03:49;6.40;;;3.80;;
6842;SDS011;3460;52.028;8.916;2023-02-28T04:06:18;6.70;;;3.60;;
6842;SDS011;3460;52.028;8.916;2023-02-28T04:08:47;7.87;;;3.30;;
6842;SDS011;3460;52.028;8.916;2023-02-28T04:11:17;4.07;;;2.87;;
6842;SDS011;3460;52.028;8.916;2023-02-28T04:13:47;5.77;;;3.10;;
6842;SDS011;3460;52.028;8.916;2023-02-28T04:16:14;4.60;;;2.73;;
6842;SDS011;3460;52.028;8.916;2023-02-28T04:18:41;5.23;;;3.13;;
6842;SDS011;3460;52.028;8.916;2023-02-28T04:21:09;4.70;;;2.40;;
6842;SDS011;3460;52.028;8.916;2023-02-28T04:23:37;4.40;;;2.77;;
6842;SDS011;3460;52.028;8.916;2023-02-28T04:26:04;6.17;;;2.70;;
6842;SDS011;3460;52.028;8.916;2023-02-28T04:28:31;4.27;;;2.90;;
6842;SDS011;3460;52.028;8.916;2023-02-28T04:30:59;3.73;;;2.57;;
6842;SDS011;3460;52.028;8.916;2023-02-28T04:33:28;2.63;;;2.23;;
6842;SDS011;3460;52.028;8.916;2023-02-28T04:35:58;4.87;;;3.00;;
6842;SDS011;3460;52.028;8.916;2023-02-28T04:38:26;4.30;;;2.70;;
6842;SDS011;3460;52.028;8.916;2023-02-28T04:40:56;4.17;;;2.87;;
6842;SDS011;3460;52.028;8.916;2023-02-28T04:43:23;4.10;;;2.70;;
6842;SDS011;3460;52.028;8.916;2023-02-28T04:45:50;3.67;;;2.50;;
6842;SDS011;3460;52.028;8.916;2023-02-28T04:48:17;4.30;;;2.60;;
6842;SDS011;3460;52.028;8.916;2023-02-28T04:50:43;5.87;;;3.00;;
6842;SDS011;3460;52.028;8.916;2023-02-28T04:53:10;3.87;;;2.30;;
6842;SDS011;3460;52.028;8.916;2023-02-28T04:55:37;5.27;;;2.53;;
6842;SDS011;3460;52.028;8.916;2023-02-28T04:58:07;4.30;;;2.97;;
6842;SDS011;3460;52.028;8.916;2023-02-28T05:00:33;3.43;;;2.80;;
6842;SDS011;3460;52.028;8.916;2023-02-28T05:03:01;4.90;;;2.40;;
6842;SDS011;3460;52.028;8.916;2023-02-28T05:05:27;2.87;;;2.10;;
6842;SDS011;3460;52.028;8.916;2023-02-28T05:07:54;3.30;;;2.00;;
6842;SDS011;3460;52.028;8.916;2023-02-28T05:10:21;4.90;;;2.70;;
6842;SDS011;3460;52.028;8.916;2023-02-28T05:12:48;5.57;;;2.63;;
6842;SDS011;3460;52.028;8.916;2023-02-28T05:15:16;3.70;;;2.40;;
6842;SDS011;3460;52.028;8.916;2023-02-28T05:17:43;3.90;;;2.50;;
6842;SDS011;3460;52.028;8.916;2023-02-28T05:20:10;3.23;;;2.60;;
6842;SDS011;3460;52.028;8.916;2023-02-28T05:22:38;6.60;;;2.67;;
6842;SDS011;3460;52.028;8.916;2023-02-28T05:25:05;3.43;;;2.50;;
6842;SDS011;3460;52.028;8.916;2023-02-28T05:27:33;2.67;;;2.00;;
6842;SDS011;3460;52.028;8.916;2023-02-28T05:29:59;3.33;;;2.20;;
6842;SDS011;3460;52.028;8.916;2023-02-28T05:32:29;5.10;;;2.40;;
6842;SDS011;3460;52.028;8.916;2023-02-28T05:34:56;4.27;;;2.83;;
6842;SDS011;3460;52.028;8.916;2023-02-28T05:37:23;3.60;;;2.73;;
6842;SDS011;3460;52.028;8.916;2023-02-28T05:39:50;3.63;;;2.63;;
6842;SDS011;3460;52.028;8.916;2023-02-28T05:42:17;6.60;;;2.53;;
6842;SDS011;3460;52.028;8.916;2023-02-28T05:44:43;3.30;;;2.40;;
6842;SDS011;3460;52.028;8.916;2023-02-28T05:47:10;3.80;;;2.37;;
6842;SDS011;3460;52.028;8.916;2023-02-28T05:49:41;3.73;;;2.27;;
6842;SDS011;3460;52.028;8.916;2023-02-28T05:52:08;3.80;;;2.53;;
6842;SDS011;3460;52.028;8.916;2023-02-28T05:54:35;6.07;;;3.50;;
6842;SDS011;3460;52.028;8.916;2023-02-28T05:57:02;8.47;;;4.90;;
6842;SDS011;3460;52.028;8.916;2023-02-28T05:59:29;6.20;;;3.80;;
6842;SDS011;3460;52.028;8.916;2023-02-28T06:01:56;4.83;;;3.07;;
6842;SDS011;3460;52.028;8.916;2023-02-28T06:04:22;6.03;;;3.33;;
6842;SDS011;3460;52.028;8.916;2023-02-28T06:06:50;8.40;;;3.00;;
6842;SDS011;3460;52.028;8.916;2023-02-28T06:09:18;6.87;;;2.90;;
6842;SDS011;3460;52.028;8.916;2023-02-28T06:11:45;3.30;;;2.43;;
6842;SDS011;3460;52.028;8.916;2023-02-28T06:14:12;6.27;;;3.03;;
6842;SDS011;3460;52.028;8.916;2023-02-28T06:16:41;7.27;;;3.23;;
6842;SDS011;3460;52.028;8.916;2023-02-28T06:19:09;4.20;;;3.00;;
6842;SDS011;3460;52.028;8.916;2023-02-28T06:21:36;4.30;;;2.80;;
6842;SDS011;3460;52.028;8.916;2023-02-28T06:24:05;4.90;;;3.23;;
6842;SDS011;3460;52.028;8.916;2023-02-28T06:26:32;6.57;;;3.00;;
6842;SDS011;3460;52.028;8.916;2023-02-28T06:28:59;4.67;;;3.10;;
6842;SDS011;3460;52.028;8.916;2023-02-28T06:31:26;5.93;;;3.27;;
6842;SDS011;3460;52.028;8.916;2023-02-28T06:33:54;3.57;;;2.97;;
6842;SDS011;3460;52.028;8.916;2023-02-28T06:36:21;5.23;;;2.83;;
6842;SDS011;3460;52.028;8.916;2023-02-28T06:38:48;6.70;;;3.03;;
6842;SDS011;3460;52.028;8.916;2023-02-28T06:41:21;4.90;;;3.20;;
6842;SDS011;3460;52.028;8.916;2023-02-28T06:43:48;5.50;;;3.60;;
6842;SDS011;3460;52.028;8.916;2023-02-28T06:46:15;5.63;;;3.73;;
6842;SDS011;3460;52.028;8.916;2023-02-28T06:48:42;4.47;;;3.20;;
6842;SDS011;3460;52.028;8.916;2023-02-28T06:51:10;4.90;;;3.13;;
6842;SDS011;3460;52.028;8.916;2023-02-28T06:53:39;3.63;;;2.50;;
6842;SDS011;3460;52.028;8.916;2023-02-28T06:56:07;3.93;;;2.50;;
6842;SDS011;3460;52.028;8.916;2023-02-28T06:58:36;6.13;;;3.80;;
6842;SDS011;3460;52.028;8.916;2023-02-28T07:01:04;5.47;;;3.43;;
6842;SDS011;3460;52.028;8.916;2023-02-28T07:03:32;9.27;;;4.60;;
6842;SDS011;3460;52.028;8.916;2023-02-28T07:05:59;9.53;;;4.77;;
6842;SDS011;3460;52.028;8.916;2023-02-28T07:08:26;8.77;;;4.90;;
6842;SDS011;3460;52.028;8.916;2023-02-28T07:10:53;8.73;;;5.20;;
6842;SDS011;3460;52.028;8.916;2023-02-28T07:13:20;8.17;;;4.90;;
6842;SDS011;3460;52.028;8.916;2023-02-28T07:15:54;11.67;;;4.90;;
6842;SDS011;3460;52.028;8.916;2023-02-28T07:18:21;8.73;;;5.50;;
6842;SDS011;3460;52.028;8.916;2023-02-28T07:20:48;6.37;;;4.40;;
6842;SDS011;3460;52.028;8.916;2023-02-28T07:23:15;9.40;;;4.50;;
6842;SDS011;3460;52.028;8.916;2023-02-28T07:25:42;7.83;;;4.53;;
6842;SDS011;3460;52.028;8.916;2023-02-28T07:28:10;7.37;;;4.50;;
6842;SDS011;3460;52.028;8.916;2023-02-28T07:30:37;8.03;;;4.80;;
6842;SDS011;3460;52.028;8.916;2023-02-28T07:33:05;7.57;;;4.17;;
6842;SDS011;3460;52.028;8.916;2023-02-28T07:35:32;7.43;;;5.10;;
6842;SDS011;3460;52.028;8.916;2023-02-28T07:37:59;9.00;;;5.70;;
6842;SDS011;3460;52.028;8.916;2023-02-28T07:40:27;8.53;;;5.87;;
6842;SDS011;3460;52.028;8.916;2023-02-28T07:42:54;7.23;;;5.33;;
6842;SDS011;3460;52.028;8.916;2023-02-28T07:45:22;9.60;;;4.80;;
6842;SDS011;3460;52.028;8.916;2023-02-28T07:47:48;8.93;;;4.70;;
6842;SDS011;3460;52.028;8.916;2023-02-28T07:52:44;6.53;;;4.97;;
6842;SDS011;3460;52.028;8.916;2023-02-28T07:55:11;10.27;;;6.00;;
6842;SDS011;3460;52.028;8.916;2023-02-28T07:57:38;10.70;;;6.50;;
6842;SDS011;3460;52.028;8.916;2023-02-28T08:00:07;12.70;;;7.50;;
6842;SDS011;3460;52.028;8.916;2023-02-28T08:02:37;9.87;;;5.63;;
6842;SDS011;3460;52.028;8.916;2023-02-28T08:05:04;9.77;;;5.50;;
6842;SDS011;3460;52.028;8.916;2023-02-28T08:07:33;7.30;;;5.20;;
6842;SDS011;3460;52.028;8.916;2023-02-28T08:10:00;14.63;;;6.87;;
6842;SDS011;3460;52.028;8.916;2023-02-28T08:12:27;12.53;;;6.40;;
6842;SDS011;3460;52.028;8.916;2023-02-28T08:14:54;15.33;;;6.60;;
6842;SDS011;3460;52.028;8.916;2023-02-28T08:17:20;11.00;;;5.57;;
6842;SDS011;3460;52.028;8.916;2023-02-28T08:19:47;8.10;;;5.13;;
6842;SDS011;3460;52.028;8.916;2023-02-28T08:22:14;7.87;;;5.30;;
6842;SDS011;3460;52.028;8.916;2023-02-28T08:24:42;18.67;;;9.00;;
6842;SDS011;3460;52.028;8.916;2023-02-28T08:27:09;13.53;;;7.47;;
6842;SDS011;3460;52.028;8.916;2023-02-28T08:29:36;15.10;;;8.33;;
6842;SDS011;3460;52.028;8.916;2023-02-28T08:32:04;25.00;;;11.40;;
6842;SDS011;3460;52.028;8.916;2023-02-28T08:34:31;29.27;;;13.97;;
6842;SDS011;3460;52.028;8.916;2023-02-28T08:36:58;26.47;;;12.13;;
6842;SDS011;3460;52.028;8.916;2023-02-28T08:39:25;27.97;;;12.27;;
6842;SDS011;3460;52.028;8.916;2023-02-28T08:41:53;15.70;;;8.13;;
6842;SDS011;3460;52.028;8.916;2023-02-28T08:44:20;18.57;;;9.70;;
6842;SDS011;3460;52.028;8.916;2023-02-28T08:46:47;14.97;;;8.73;;
6842;SDS011;3460;52.028;8.916;2023-02-28T08:49:13;8.03;;;4.80;;
6842;SDS011;3460;52.028;8.916;2023-02-28T08:51:41;4.03;;;2.80;;
6842;SDS011;3460;52.028;8.916;2023-02-28T08:54:07;4.97;;;3.57;;
6842;SDS011;3460;52.028;8.916;2023-02-28T08:56:37;6.07;;;3.17;;
6842;SDS011;3460;52.028;8.916;2023-02-28T08:59:06;8.33;;;3.80;;
6842;SDS011;3460;52.028;8.916;2023-02-28T09:01:35;5.77;;;3.80;;
6842;SDS011;3460;52.028;8.916;2023-02-28T09:04:02;8.27;;;4.70;;
6842;SDS011;3460;52.028;8.916;2023-02-28T09:06:29;6.57;;;4.03;;
6842;SDS011;3460;52.028;8.916;2023-02-28T09:08:56;7.83;;;3.77;;
6842;SDS011;3460;52.028;8.916;2023-02-28T09:11:25;4.10;;;2.90;;
6842;SDS011;3460;52.028;8.916;2023-02-28T09:13:52;5.50;;;3.60;;
6842;SDS011;3460;52.028;8.916;2023-02-28T09:16:21;5.90;;;3.60;;
6842;SDS011;3460;52.028;8.916;2023-02-28T09:18:48;5.67;;;3.37;;
6842;SDS011;3460;52.028;8.916;2023-02-28T09:21:16;4.53;;;3.00;;
6842;SDS011;3460;52.028;8.916;2023-02-28T09:23:45;8.90;;;4.50;;
6842;SDS011;3460;52.028;8.916;2023-02-28T09:26:13;6.63;;;4.00;;
6842;SDS011;3460;52.028;8.916;2023-02-28T09:28:40;4.57;;;3.10;;
6842;SDS011;3460;52.028;8.916;2023-02-28T09:31:10;3.70;;;1.93;;
6842;SDS011;3460;52.028;8.916;2023-02-28T09:33:40;1.80;;;1.50;;
6842;SDS011;3460;52.028;8.916;2023-02-28T09:36:07;3.23;;;1.80;;
6842;SDS011;3460;52.028;8.916;2023-02-28T09:38:34;3.70;;;2.00;;
6842;SDS011;3460;52.028;8.916;2023-02-28T09:41:02;2.37;;;1.67;;
6842;SDS011;3460;52.028;8.916;2023-02-28T09:43:37;1.90;;;1.40;;
6842;SDS011;3460;52.028;8.916;2023-02-28T09:46:08;2.70;;;1.50;;
6842;SDS011;3460;52.028;8.916;2023-02-28T09:48:45;2.97;;;1.63;;
6842;SDS011;3460;52.028;8.916;2023-02-28T09:51:15;2.57;;;1.40;;
6842;SDS011;3460;52.028;8.916;2023-02-28T09:53:55;5.00;;;1.70;;
6842;SDS011;3460;52.028;8.916;2023-02-28T09:56:24;5.17;;;3.00;;
6842;SDS011;3460;52.028;8.916;2023-02-28T09:58:54;6.07;;;2.00;;
6842;SDS011;3460;52.028;8.916;2023-02-28T10:01:25;4.30;;;1.87;;
6842;SDS011;3460;52.028;8.916;2023-02-28T10:03:59;2.30;;;1.50;;
6842;SDS011;3460;52.028;8.916;2023-02-28T10:06:30;4.50;;;1.80;;
6842;SDS011;3460;52.028;8.916;2023-02-28T10:09:02;2.80;;;1.47;;
6842;SDS011;3460;52.028;8.916;2023-02-28T10:11:35;1.80;;;1.57;;
6842;SDS011;3460;52.028;8.916;2023-02-28T10:14:04;2.83;;;1.80;;
6842;SDS011;3460;52.028;8.916;2023-02-28T10:16:40;3.33;;;1.60;;
6842;SDS011;3460;52.028;8.916;2023-02-28T10:19:13;2.87;;;1.30;;
6842;SDS011;3460;52.028;8.916;2023-02-28T10:21:46;2.40;;;1.70;;
6842;SDS011;3460;52.028;8.916;2023-02-28T10:24:20;2.87;;;1.77;;
6842;SDS011;3460;52.028;8.916;2023-02-28T10:26:52;4.80;;;1.70;;
6842;SDS011;3460;52.028;8.916;2023-02-28T10:29:25;2.70;;;1.63;;
6842;SDS011;3460;52.028;8.916;2023-02-28T10:31:52;4.47;;;1.90;;
6842;SDS011;3460;52.028;8.916;2023-02-28T10:34:20;3.47;;;1.73;;
6842;SDS011;3460;52.028;8.916;2023-02-28T10:36:47;3.03;;;1.60;;
6842;SDS011;3460;52.028;8.916;2023-02-28T10:39:34;2.90;;;1.90;;
6842;SDS011;3460;52.028;8.916;2023-02-28T10:42:18;5.20;;;2.17;;
6842;SDS011;3460;52.028;8.916;2023-02-28T10:44:46;3.10;;;1.80;;
6842;SDS011;3460;52.028;8.916;2023-02-28T10:47:14;2.03;;;1.57;;
6842;SDS011;3460;52.028;8.916;2023-02-28T10:49:48;4.33;;;2.30;;
6842;SDS011;3460;52.028;8.916;2023-02-28T10:52:32;3.67;;;1.90;;
6842;SDS011;3460;52.028;8.916;2023-02-28T10:55:15;5.43;;;1.63;;
6842;SDS011;3460;52.028;8.916;2023-02-28T10:57:46;4.07;;;2.07;;
6842;SDS011;3460;52.028;8.916;2023-02-28T11:00:15;4.33;;;3.13;;
6842;SDS011;3460;52.028;8.916;2023-02-28T11:02:44;7.70;;;2.30;;
6842;SDS011;3460;52.028;8.916;2023-02-28T11:05:26;3.23;;;1.70;;
6842;SDS011;3460;52.028;8.916;2023-02-28T11:07:55;3.33;;;2.10;;
6842;SDS011;3460;52.028;8.916;2023-02-28T11:10:24;6.77;;;3.70;;
6842;SDS011;3460;52.028;8.916;2023-02-28T11:12:55;4.43;;;3.27;;
6842;SDS011;3460;52.028;8.916;2023-02-28T11:15:23;4.53;;;2.47;;
6842;SDS011;3460;52.028;8.916;2023-02-28T11:17:53;3.47;;;2.37;;
6842;SDS011;3460;52.028;8.916;2023-02-28T11:20:21;2.77;;;1.73;;
6842;SDS011;3460;52.028;8.916;2023-02-28T11:22:52;3.17;;;1.90;;
6842;SDS011;3460;52.028;8.916;2023-02-28T11:25:22;4.03;;;2.50;;
6842;SDS011;3460;52.028;8.916;2023-02-28T11:27:52;2.67;;;1.93;;
6842;SDS011;3460;52.028;8.916;2023-02-28T11:30:33;2.77;;;1.83;;
6842;SDS011;3460;52.028;8.916;2023-02-28T11:33:18;3.00;;;2.03;;
6842;SDS011;3460;52.028;8.916;2023-02-28T11:35:49;4.10;;;1.90;;
6842;SDS011;3460;52.028;8.916;2023-02-28T11:38:18;3.20;;;1.90;;
6842;SDS011;3460;52.028;8.916;2023-02-28T11:40:46;2.73;;;2.33;;
6842;SDS011;3460;52.028;8.916;2023-02-28T11:43:27;3.40;;;1.80;;
6842;SDS011;3460;52.028;8.916;2023-02-28T11:46:06;5.93;;;1.83;;
6842;SDS011;3460;52.028;8.916;2023-02-28T11:48:45;5.10;;;1.77;;
6842;SDS011;3460;52.028;8.916;2023-02-28T11:51:20;4.00;;;2.00;;
6842;SDS011;3460;52.028;8.916;2023-02-28T11:56:55;3.97;;;1.70;;
6842;SDS011;3460;52.028;8.916;2023-02-28T11:59:35;2.57;;;1.67;;
6842;SDS011;3460;52.028;8.916;2023-02-28T12:02:24;2.23;;;1.63;;
6842;SDS011;3460;52.028;8.916;2023-02-28T12:04:59;2.13;;;1.50;;
6842;SDS011;3460;52.028;8.916;2023-02-28T12:07:38;4.97;;;1.83;;
6842;SDS011;3460;52.028;8.916;2023-02-28T12:10:17;2.60;;;1.80;;
6842;SDS011;3460;52.028;8.916;2023-02-28T12:12:53;3.87;;;1.73;;
6842;SDS011;3460;52.028;8.916;2023-02-28T12:15:32;2.40;;;1.63;;
6842;SDS011;3460;52.028;8.916;2023-02-28T12:18:27;3.70;;;1.83;;
6842;SDS011;3460;52.028;8.916;2023-02-28T12:21:04;3.03;;;1.90;;
6842;SDS011;3460;52.028;8.916;2023-02-28T12:23:44;2.80;;;1.83;;
6842;SDS011;3460;52.028;8.916;2023-02-28T12:26:28;4.50;;;1.97;;
6842;SDS011;3460;52.028;8.916;2023-02-28T12:29:16;4.47;;;2.20;;
6842;SDS011;3460;52.028;8.916;2023-02-28T12:31:47;3.70;;;1.67;;
6842;SDS011;3460;52.028;8.916;2023-02-28T12:34:20;4.00;;;1.90;;
6842;SDS011;3460;52.028;8.916;2023-02-28T12:36:51;5.53;;;1.97;;
6842;SDS011;3460;52.028;8.916;2023-02-28T12:39:23;2.80;;;1.80;;
6842;SDS011;3460;52.028;8.916;2023-02-28T12:41:53;4.20;;;2.63;;
6842;SDS011;3460;52.028;8.916;2023-02-28T12:44:26;4.93;;;2.10;;
6842;SDS011;3460;52.028;8.916;2023-02-28T12:46:59;4.57;;;2.30;;
6842;SDS011;3460;52.028;8.916;2023-02-28T12:49:30;3.57;;;2.00;;
6842;SDS011;3460;52.028;8.916;2023-02-28T12:51:59;2.50;;;2.20;;
6842;SDS011;3460;52.028;8.916;2023-02-28T12:54:28;6.03;;;3.07;;
6842;SDS011;3460;52.028;8.916;2023-02-28T12:57:02;2.87;;;2.07;;
6842;SDS011;3460;52.028;8.916;2023-02-28T12:59:37;3.73;;;2.57;;
6842;SDS011;3460;52.028;8.916;2023-02-28T13:05:12;2.77;;;2.10;;
6842;SDS011;3460;52.028;8.916;2023-02-28T13:10:55;4.07;;;2.53;;
6842;SDS011;3460;52.028;8.916;2023-02-28T13:13:23;4.20;;;2.40;;
6842;SDS011;3460;52.028;8.916;2023-02-28T13:16:00;7.97;;;2.80;;
6842;SDS011;3460;52.028;8.916;2023-02-28T13:18:33;3.77;;;2.27;;
6842;SDS011;3460;52.028;8.916;2023-02-28T13:21:04;5.37;;;2.50;;
6842;SDS011;3460;52.028;8.916;2023-02-28T13:23:37;5.67;;;2.63;;
6842;SDS011;3460;52.028;8.916;2023-02-28T13:29:30;2.50;;;2.10;;
6842;SDS011;3460;52.028;8.916;2023-02-28T13:44:00;4.13;;;2.63;;
6842;SDS011;3460;52.028;8.916;2023-02-28T13:46:29;3.20;;;2.30;;
6842;SDS011;3460;52.028;8.916;2023-02-28T13:51:46;3.53;;;2.33;;
6842;SDS011;3460;52.028;8.916;2023-02-28T13:54:20;5.00;;;2.57;;
6842;SDS011;3460;52.028;8.916;2023-02-28T13:57:01;3.97;;;2.50;;
6842;SDS011;3460;52.028;8.916;2023-02-28T13:59:37;2.63;;;2.10;;
6842;SDS011;3460;52.028;8.916;2023-02-28T14:05:12;4.10;;;2.17;;
6842;SDS011;3460;52.028;8.916;2023-02-28T14:07:42;3.53;;;2.37;;
6842;SDS011;3460;52.028;8.916;2023-02-28T14:10:21;5.07;;;2.40;;
6842;SDS011;3460;52.028;8.916;2023-02-28T14:13:02;4.07;;;2.60;;
6842;SDS011;3460;52.028;8.916;2023-02-28T14:15:43;6.37;;;2.17;;
6842;SDS011;3460;52.028;8.916;2023-02-28T14:18:17;3.07;;;2.10;;
6842;SDS011;3460;52.028;8.916;2023-02-28T14:20:47;3.17;;;2.20;;
6842;SDS011;3460;52.028;8.916;2023-02-28T14:23:21;3.13;;;2.20;;
6842;SDS011;3460;52.028;8.916;2023-02-28T14:26:03;3.83;;;2.30;;
6842;SDS011;3460;52.028;8.916;2023-02-28T14:28:43;3.30;;;2.50;;
6842;SDS011;3460;52.028;8.916;2023-02-28T14:31:28;2.70;;;2.30;;
6842;SDS011;3460;52.028;8.916;2023-02-28T14:34:03;3.57;;;2.17;;
6842;SDS011;3460;52.028;8.916;2023-02-28T14:36:43;2.33;;;2.07;;
6842;SDS011;3460;52.028;8.916;2023-02-28T14:39:11;4.33;;;2.33;;
6842;SDS011;3460;52.028;8.916;2023-02-28T14:41:42;2.73;;;2.00;;
6842;SDS011;3460;52.028;8.916;2023-02-28T14:44:13;2.73;;;2.30;;
6842;SDS011;3460;52.028;8.916;2023-02-28T14:46:42;4.10;;;2.10;;
6842;SDS011;3460;52.028;8.916;2023-02-28T14:49:13;3.73;;;2.33;;
6842;SDS011;3460;52.028;8.916;2023-02-28T14:51:43;4.37;;;2.40;;
6842;SDS011;3460;52.028;8.916;2023-02-28T14:54:13;2.90;;;2.10;;
6842;SDS011;3460;52.028;8.916;2023-02-28T14:56:43;2.60;;;2.03;;
6842;SDS011;3460;52.028;8.916;2023-02-28T14:59:25;3.43;;;2.40;;
6842;SDS011;3460;52.028;8.916;2023-02-28T15:04:41;3.43;;;2.30;;
6842;SDS011;3460;52.028;8.916;2023-02-28T15:07:08;3.40;;;2.23;;
6842;SDS011;3460;52.028;8.916;2023-02-28T15:09:36;5.43;;;2.13;;
6842;SDS011;3460;52.028;8.916;2023-02-28T15:12:04;3.43;;;2.40;;
6842;SDS011;3460;52.028;8.916;2023-02-28T15:14:31;5.40;;;2.50;;
6842;SDS011;3460;52.028;8.916;2023-02-28T15:17:02;3.20;;;2.50;;
6842;SDS011;3460;52.028;8.916;2023-02-28T15:19:34;3.27;;;2.40;;
6842;SDS011;3460;52.028;8.916;2023-02-28T15:22:04;3.93;;;2.60;;
6842;SDS011;3460;52.028;8.916;2023-02-28T15:24:35;4.07;;;2.40;;
6842;SDS011;3460;52.028;8.916;2023-02-28T15:27:07;2.93;;;2.30;;
6842;SDS011;3460;52.028;8.916;2023-02-28T15:29:42;2.40;;;2.00;;
6842;SDS011;3460;52.028;8.916;2023-02-28T15:32:21;5.27;;;2.53;;
6842;SDS011;3460;52.028;8.916;2023-02-28T15:34:51;3.03;;;2.50;;
6842;SDS011;3460;52.028;8.916;2023-02-28T15:37:27;4.50;;;2.63;;
6842;SDS011;3460;52.028;8.916;2023-02-28T15:39:57;2.97;;;2.10;;
6842;SDS011;3460;52.028;8.916;2023-02-28T15:42:32;3.37;;;2.80;;
6842;SDS011;3460;52.028;8.916;2023-02-28T15:44:59;3.67;;;2.47;;
6842;SDS011;3460;52.028;8.916;2023-02-28T15:47:26;2.50;;;2.20;;
6842;SDS011;3460;52.028;8.916;2023-02-28T15:49:56;5.43;;;2.27;;
6842;SDS011;3460;52.028;8.916;2023-02-28T15:52:26;4.20;;;3.07;;
6842;SDS011;3460;52.028;8.916;2023-02-28T15:54:56;6.67;;;2.60;;
6842;SDS011;3460;52.028;8.916;2023-02-28T15:57:24;3.13;;;2.60;;
6842;SDS011;3460;52.028;8.916;2023-02-28T15:59:54;2.77;;;2.20;;
6842;SDS011;3460;52.028;8.916;2023-02-28T16:02:30;2.30;;;2.10;;
6842;SDS011;3460;52.028;8.916;2023-02-28T16:04:59;3.30;;;2.43;;
6842;SDS011;3460;52.028;8.916;2023-02-28T16:07:29;5.13;;;2.57;;
6842;SDS011;3460;52.028;8.916;2023-02-28T16:09:55;3.43;;;2.43;;
6842;SDS011;3460;52.028;8.916;2023-02-28T16:12:25;4.30;;;2.40;;